Acton, Maine
Current Conditions -  °F | °C
As of 8:15 AM on Wednesday 22 Oct 2014 (Local Time) from KSFM Reporting Station
Overcast Overcast  
Wind Chill: 39°   Ceiling: 800
Heat Index: 46°   Visibility: 5mi
Dew Point: 43°   Wind: 18mph
Humidity: 87%   Direction: 20°NNE
Pressure: 30.09"   Gusts: 24mph
Location:  43.53°N, 70.91°W
Report Text: KSFM 221215Z AUTO 02016G21KT 5SM OVC008 08/06 A3009 RMK AO1
Loading
Personal Weather Stations






























Interactive Weather Map
Tropical Storm Tracking
New forecast layout! Learn more

10-Day Weather Forecast

Advertisements
Track Severe Weather on mobile